Post Oak, Texas
Current Conditions -  °F | °C
As of 11:15 PM on Saturday 20 Dec 2014 (Local Time) from KGYB Reporting Station
Overcast Overcast  
Wind Chill: 49°   Ceiling: 800
Heat Index: 49°   Visibility: 10mi
Dew Point: 46°   Wind: 3mph
Humidity: 90%   Direction: 110°ESE
Pressure: 30.22"   Gusts: NA
Location:  30.2279°N, 96.7713°W
Report Text: KGYB 210515Z AUTO 11003KT 10SM BKN008 OVC019 10/08 A3022 RMK AO2 T00950080
Loading
Personal Weather Stations






























Interactive Weather Map New forecast layout! Learn more

10-Day Weather Forecast

Advertisements
Track Severe Weather on mobile